createdAt,value
2023-05-22T13:25:31.344Z,37.64
2023-05-22T13:27:59.512Z,37.75
2023-05-22T13:30:26.404Z,37.04
2023-05-22T13:32:53.187Z,36.07
2023-05-22T13:35:19.803Z,35.70
2023-05-22T13:37:46.802Z,34.57
2023-05-22T13:40:14.585Z,33.23
2023-05-22T13:42:41.352Z,32.80
2023-05-22T13:45:08.646Z,32.97
2023-05-22T13:47:35.504Z,33.23
2023-05-22T13:50:02.196Z,33.05
2023-05-22T13:52:28.908Z,32.78
2023-05-22T13:54:56.172Z,33.62
2023-05-22T13:57:22.758Z,34.21
2023-05-22T13:59:49.424Z,33.74
2023-05-22T14:02:16.022Z,33.13
2023-05-22T14:04:42.673Z,32.77
2023-05-22T14:07:09.248Z,32.96
2023-05-22T14:09:35.895Z,33.16
2023-05-22T14:12:02.720Z,33.16
2023-05-22T14:14:29.266Z,33.64
2023-05-22T14:16:55.920Z,33.98
2023-05-22T14:19:22.618Z,34.97
2023-05-22T14:21:50.875Z,34.16
2023-05-22T14:24:18.020Z,33.58
2023-05-22T14:26:44.892Z,33.88
2023-05-22T14:29:11.954Z,33.37
2023-05-22T14:31:51.783Z,33.35
2023-05-22T14:34:18.889Z,33.63
2023-05-22T14:36:46.100Z,34.84
2023-05-22T14:39:12.674Z,35.12
2023-05-22T14:41:39.349Z,34.61
2023-05-22T14:44:06.116Z,33.79
2023-05-22T14:46:32.764Z,33.07
2023-05-22T14:48:59.338Z,33.81
2023-05-22T14:51:25.998Z,35.33
2023-05-22T14:53:52.836Z,34.50
2023-05-22T14:56:19.488Z,34.24
2023-05-22T14:58:46.073Z,34.99
2023-05-22T15:01:12.656Z,34.73
2023-05-22T15:03:39.292Z,33.97
2023-05-22T15:06:06.111Z,33.15
2023-05-22T15:08:32.718Z,33.18
2023-05-22T15:10:59.392Z,32.68
2023-05-22T15:13:26.019Z,32.38
2023-05-22T15:15:52.753Z,32.78
2023-05-22T15:18:20.127Z,32.99
2023-05-22T15:20:46.777Z,32.36
2023-05-22T15:23:13.797Z,32.51
2023-05-22T15:25:41.109Z,32.43
2023-05-22T15:28:07.990Z,32.38
2023-05-22T15:30:38.885Z,32.63
2023-05-22T15:33:05.763Z,31.58
2023-05-22T15:35:32.402Z,32.15
2023-05-22T15:37:59.271Z,33.02
2023-05-22T15:40:26.084Z,33.27
2023-05-22T15:42:53.458Z,33.07
2023-05-22T15:45:20.587Z,32.81
2023-05-22T15:47:47.930Z,33.32
2023-05-22T15:50:14.656Z,33.06
2023-05-22T15:52:41.225Z,33.48
2023-05-22T15:55:08.172Z,32.91
2023-05-22T15:57:34.816Z,32.65
2023-05-22T16:00:01.451Z,32.94
2023-05-22T16:02:28.153Z,33.46
2023-05-22T16:04:54.778Z,33.17
2023-05-22T16:07:21.427Z,33.47
2023-05-22T16:09:50.157Z,33.46
2023-05-22T16:12:16.984Z,34.01
2023-05-22T16:14:43.568Z,33.83
2023-05-22T16:17:10.161Z,33.65
2023-05-22T16:19:36.837Z,33.91
2023-05-22T16:22:03.658Z,33.56
2023-05-22T16:24:30.286Z,33.75
2023-05-22T16:26:59.225Z,33.43
2023-05-22T16:29:25.852Z,33.28
2023-05-22T16:31:52.463Z,33.09
2023-05-22T16:34:19.195Z,33.67
2023-05-22T16:36:45.936Z,33.26
2023-05-22T16:39:12.741Z,33.79
2023-05-22T16:41:39.338Z,33.71
2023-05-22T16:44:05.944Z,34.17
2023-05-22T16:46:32.582Z,34.17
2023-05-22T16:48:59.232Z,33.93
2023-05-22T16:51:25.814Z,34.13
2023-05-22T16:53:52.381Z,35.23
2023-05-22T16:56:20.753Z,35.93
2023-05-22T16:58:47.808Z,35.35
2023-05-22T17:01:14.569Z,35.84
2023-05-22T17:03:41.260Z,35.21
2023-05-22T17:06:09.022Z,35.66
2023-05-22T17:08:35.701Z,36.05
2023-05-22T17:11:02.333Z,36.57
2023-05-22T17:13:28.905Z,36.62
2023-05-22T17:15:55.700Z,36.73
2023-05-22T17:18:22.330Z,36.50
2023-05-22T17:20:49.853Z,36.97
2023-05-22T17:23:17.295Z,37.34
2023-05-22T17:25:46.593Z,38.53
2023-05-22T17:28:14.532Z,39.18
2023-05-22T17:30:42.757Z,40.03
2023-05-22T17:33:10.245Z,39.95
2023-05-22T17:35:36.866Z,41.08
2023-05-22T17:38:03.563Z,41.94
2023-05-22T17:40:44.047Z,42.21
2023-05-22T17:43:12.520Z,43.21
2023-05-22T17:45:39.642Z,43.52
2023-05-22T17:48:07.659Z,44.16
2023-05-22T17:50:34.358Z,43.96
2023-05-22T17:53:00.924Z,44.81
2023-05-22T17:55:27.512Z,45.20
2023-05-22T17:57:54.269Z,45.70
2023-05-22T18:00:20.934Z,46.52
2023-05-22T18:02:47.762Z,46.45
2023-05-22T18:05:14.520Z,46.58
2023-05-22T18:07:41.245Z,47.03
2023-05-22T18:10:08.303Z,47.32
2023-05-22T18:12:37.308Z,47.48
2023-05-22T18:15:05.128Z,47.90
2023-05-22T18:17:32.560Z,48.38
2023-05-22T18:20:01.019Z,48.73
2023-05-22T18:22:27.567Z,49.19
2023-05-22T18:24:54.149Z,49.77
2023-05-22T18:27:20.808Z,49.89
2023-05-22T18:29:47.320Z,49.84
2023-05-22T18:32:13.901Z,50.27
2023-05-22T18:34:41.109Z,50.57
2023-05-22T18:37:07.758Z,50.56
2023-05-22T18:39:34.321Z,50.64
2023-05-22T18:42:01.152Z,50.93
2023-05-22T18:44:27.813Z,51.38
2023-05-22T18:46:54.493Z,51.37
2023-05-22T18:49:21.288Z,51.64
2023-05-22T18:51:47.927Z,51.93
2023-05-22T18:54:14.522Z,52.04
2023-05-22T18:56:41.131Z,52.46
2023-05-22T18:59:07.793Z,52.80
2023-05-22T19:01:34.427Z,53.12
2023-05-22T19:04:01.079Z,53.23
2023-05-22T19:06:29.002Z,53.54
2023-05-22T19:08:55.565Z,53.29
2023-05-22T19:11:22.095Z,53.82
2023-05-22T19:13:48.648Z,54.04
2023-05-22T19:16:15.368Z,54.24
2023-05-22T19:18:42.177Z,54.58
2023-05-22T19:21:08.867Z,54.98
2023-05-22T19:23:36.653Z,55.00
2023-05-22T19:26:03.483Z,55.25
2023-05-22T19:28:32.296Z,55.96
2023-05-22T19:31:00.084Z,56.23
2023-05-22T19:33:27.651Z,56.33
2023-05-22T19:35:54.250Z,56.38
2023-05-22T19:38:20.884Z,56.74
2023-05-22T19:40:47.456Z,57.18
2023-05-22T19:43:14.460Z,57.11
2023-05-22T19:45:41.070Z,57.71
2023-05-22T19:48:07.838Z,57.59
2023-05-22T19:50:35.543Z,58.10
2023-05-22T19:53:02.482Z,57.96
2023-05-22T19:55:29.248Z,58.05
2023-05-22T19:57:56.052Z,58.12
2023-05-22T20:00:22.854Z,58.33
2023-05-22T20:02:50.066Z,58.08
2023-05-22T20:05:17.047Z,58.42
2023-05-22T20:07:43.648Z,58.63
2023-05-22T20:10:11.284Z,58.61
2023-05-22T20:12:38.168Z,58.41
2023-05-22T20:15:06.947Z,58.38
2023-05-22T20:17:34.519Z,58.91
2023-05-22T20:20:01.148Z,58.81
2023-05-22T20:22:27.963Z,59.24
2023-05-22T20:24:54.578Z,59.24
2023-05-22T20:27:21.243Z,59.44
2023-05-22T20:29:49.942Z,59.40
2023-05-22T20:32:17.017Z,59.74
2023-05-22T20:34:45.161Z,59.65
2023-05-22T20:37:13.653Z,59.63
2023-05-22T20:39:43.231Z,59.92
2023-05-22T20:42:11.645Z,60.22
2023-05-22T20:44:38.401Z,60.34
2023-05-22T20:47:05.940Z,60.34
2023-05-22T20:49:34.765Z,60.82
2023-05-22T20:52:02.784Z,60.93
2023-05-22T20:54:34.085Z,60.86
2023-05-22T20:57:01.527Z,61.16
2023-05-22T20:59:31.080Z,61.56
2023-05-22T21:01:57.970Z,61.80
2023-05-22T21:04:24.757Z,62.01
2023-05-22T21:06:51.472Z,62.04
2023-05-22T21:09:18.208Z,62.61
2023-05-22T21:11:44.863Z,62.67
2023-05-22T21:14:11.546Z,63.06
2023-05-22T21:16:39.572Z,63.14
2023-05-22T21:19:07.263Z,63.64
2023-05-22T21:21:36.224Z,63.37
2023-05-22T21:24:02.903Z,63.61
2023-05-22T21:26:29.562Z,63.67
2023-05-22T21:28:56.359Z,63.84
2023-05-22T21:31:23.030Z,64.02
2023-05-22T21:33:49.659Z,64.11
2023-05-22T21:36:16.275Z,64.08
2023-05-22T21:38:42.870Z,63.98
2023-05-22T21:41:09.384Z,64.41
2023-05-22T21:43:35.960Z,64.34
2023-05-22T21:46:02.582Z,64.69
2023-05-22T21:48:29.228Z,64.69
2023-05-22T21:50:56.097Z,64.56
2023-05-22T21:53:23.044Z,64.55
2023-05-22T21:55:49.875Z,64.83
2023-05-22T21:58:16.435Z,65.49
2023-05-22T22:00:42.992Z,65.58
2023-05-22T22:03:09.736Z,65.61
2023-05-22T22:05:36.802Z,65.74
2023-05-22T22:08:03.366Z,65.84
2023-05-22T22:10:29.893Z,65.58
2023-05-22T22:12:56.458Z,66.36
2023-05-22T22:15:23.152Z,66.17
2023-05-22T22:17:50.274Z,66.59
2023-05-22T22:20:18.659Z,66.55
2023-05-22T22:22:47.134Z,66.19
2023-05-22T22:25:13.732Z,67.43
2023-05-22T22:27:40.712Z,67.14
2023-05-22T22:30:08.200Z,66.88
2023-05-22T22:32:34.769Z,67.21
2023-05-22T22:35:01.628Z,67.11
2023-05-22T22:37:28.453Z,67.15
2023-05-22T22:39:55.297Z,67.25
2023-05-22T22:42:21.997Z,67.35
2023-05-22T22:44:48.554Z,67.60
2023-05-22T22:47:15.122Z,67.32
2023-05-22T22:49:42.427Z,67.42
2023-05-22T22:52:09.027Z,67.81
2023-05-22T22:54:35.813Z,67.94
2023-05-22T22:57:02.478Z,68.09
2023-05-22T22:59:29.211Z,68.10
2023-05-22T23:01:55.917Z,67.91
2023-05-22T23:04:22.611Z,68.09
2023-05-22T23:06:49.237Z,67.98
2023-05-22T23:09:15.777Z,67.95
2023-05-22T23:11:42.337Z,68.50
2023-05-22T23:14:09.758Z,68.21
2023-05-22T23:16:37.820Z,68.79
2023-05-22T23:19:05.152Z,68.74
2023-05-22T23:21:32.653Z,68.49
2023-05-22T23:24:00.451Z,68.24
2023-05-22T23:26:28.102Z,68.53
2023-05-22T23:28:54.677Z,68.56
2023-05-22T23:31:26.265Z,68.58
2023-05-22T23:33:53.237Z,69.01
2023-05-22T23:36:19.858Z,69.22
2023-05-22T23:38:46.930Z,69.10
2023-05-22T23:41:19.873Z,69.01
2023-05-22T23:43:47.128Z,69.80
2023-05-22T23:46:14.186Z,69.46
2023-05-22T23:48:42.091Z,69.36
2023-05-22T23:51:14.311Z,69.63
2023-05-22T23:53:42.298Z,70.05
2023-05-22T23:56:09.393Z,70.15
2023-05-22T23:58:37.484Z,69.91
